Time;durP1;ratioP1;P1;durP2;ratioP2;P2;SDS_P1;SDS_P2;PMS_P1;PMS_P2;Temp;Humidity;BMP_temperature;BMP_pressure;BME280_temperature;BME280_humidity;BME280_pressure;Samples;Min_cycle;Max_cycle;Signal;HPM_P1;HPM_P2
2023/08/07 00:00:57;;;;;;;0.43;0.30;;;15.10;99.90;;;;;;9969775;29;20205;-76
2023/08/07 00:06:18;;;;;;;2.72;0.52;;;15.10;99.90;;;;;;9968118;29;20234;-78
2023/08/07 00:11:39;;;;;;;0.52;0.30;;;15.00;99.90;;;;;;9957332;29;20516;-75
2023/08/07 00:17:01;;;;;;;0.35;0.30;;;15.10;99.90;;;;;;9968310;29;20280;-76
2023/08/07 00:22:23;;;;;;;2.53;0.60;;;15.10;99.90;;;;;;9973007;29;20396;-76
2023/08/07 00:27:44;;;;;;;0.82;0.50;;;15.10;99.90;;;;;;10005642;29;20201;-75
2023/08/07 00:33:05;;;;;;;1.73;0.60;;;15.10;99.90;;;;;;9994483;29;20210;-76
2023/08/07 00:38:26;;;;;;;0.95;0.47;;;15.10;99.90;;;;;;9970989;29;20270;-78
2023/08/07 00:43:47;;;;;;;2.53;0.60;;;15.00;99.90;;;;;;10000552;29;20200;-76
2023/08/07 00:49:11;;;;;;;0.65;0.40;;;15.00;99.90;;;;;;9977736;29;20465;-76
2023/08/07 00:54:33;;;;;;;0.20;0.20;;;15.00;99.90;;;;;;9939648;29;20234;-76
2023/08/07 00:59:54;;;;;;;0.93;0.28;;;15.00;99.90;;;;;;9930496;30;20440;-76
2023/08/07 01:05:15;;;;;;;1.38;0.32;;;15.00;99.90;;;;;;9943932;29;20252;-79
2023/08/07 01:11:05;;;;;;;0.70;0.30;;;15.00;99.90;;;;;;9977391;29;20217;-77
2023/08/07 01:16:56;;;;;;;1.13;0.47;;;14.90;99.90;;;;;;9950773;29;20247;-76
2023/08/07 01:22:18;;;;;;;1.50;0.60;;;14.90;99.90;;;;;;9952850;29;20205;-76
2023/08/07 01:27:49;;;;;;;0.80;0.70;;;14.90;99.90;;;;;;9980194;29;20215;-77
2023/08/07 01:33:22;;;;;;;1.88;1.17;;;14.90;99.90;;;;;;9990785;29;20434;-76
2023/08/07 01:38:43;;;;;;;0.70;0.22;;;14.90;99.90;;;;;;9964989;29;20294;-76
2023/08/07 01:44:05;;;;;;;5.63;2.47;;;14.90;99.90;;;;;;9967002;29;20208;-76
2023/08/07 01:49:26;;;;;;;0.43;0.40;;;14.90;99.90;;;;;;9973681;29;20585;-77
2023/08/07 01:54:48;;;;;;;0.32;0.20;;;14.90;99.90;;;;;;9965662;29;20250;-76
2023/08/07 02:00:10;;;;;;;3.83;0.30;;;14.90;99.90;;;;;;9964600;29;20221;-76
2023/08/07 02:05:37;;;;;;;0.30;0.30;;;14.90;99.90;;;;;;9964409;29;20494;-75
2023/08/07 02:11:01;;;;;;;0.25;0.20;;;14.80;99.90;;;;;;9962482;29;20209;-76
2023/08/07 02:16:22;;;;;;;0.20;0.17;;;14.80;99.90;;;;;;9951363;29;20262;-78
2023/08/07 02:21:43;;;;;;;0.20;0.20;;;14.90;99.90;;;;;;9964391;29;20224;-76
2023/08/07 02:27:04;;;;;;;0.20;0.20;;;14.90;99.90;;;;;;9971274;29;20209;-77
2023/08/07 02:32:25;;;;;;;0.20;0.20;;;14.90;99.90;;;;;;9994995;29;20299;-78
2023/08/07 02:37:47;;;;;;;0.50;0.30;;;14.80;99.90;;;;;;9963518;29;20242;-76
2023/08/07 02:43:08;;;;;;;0.20;0.20;;;14.80;99.90;;;;;;9969785;29;20232;-76
2023/08/07 02:48:31;;;;;;;0.63;0.30;;;14.70;99.90;;;;;;9979497;29;20295;-78
2023/08/07 02:53:52;;;;;;;0.25;0.22;;;14.60;99.90;;;;;;9957986;29;20260;-77
2023/08/07 02:59:14;;;;;;;0.50;0.30;;;14.60;99.90;;;;;;9964135;29;20247;-77
2023/08/07 03:04:35;;;;;;;0.40;0.40;;;14.50;99.90;;;;;;9933492;30;20309;-76
2023/08/07 03:09:56;;;;;;;0.30;0.30;;;14.50;99.90;;;;;;9932970;29;20204;-77
2023/08/07 03:15:17;;;;;;;0.73;0.40;;;14.50;99.90;;;;;;9950529;29;20236;-78
2023/08/07 03:20:38;;;;;;;0.80;0.40;;;14.50;99.90;;;;;;9969924;29;20208;-76
2023/08/07 03:26:12;;;;;;;2.55;0.40;;;14.40;99.90;;;;;;9970032;29;20394;-76
2023/08/07 03:31:36;;;;;;;0.43;0.38;;;14.40;99.90;;;;;;9995371;29;20210;-76
2023/08/07 03:37:01;;;;;;;0.30;0.30;;;14.40;99.90;;;;;;9969174;29;20247;-76
2023/08/07 03:42:22;;;;;;;0.53;0.50;;;14.50;99.90;;;;;;9968439;29;20468;-76
2023/08/07 03:47:43;;;;;;;0.30;0.30;;;14.50;99.90;;;;;;9983442;29;20219;-76
2023/08/07 03:53:07;;;;;;;0.38;0.38;;;14.40;99.90;;;;;;9996203;29;20222;-77
2023/08/07 03:58:33;;;;;;;1.33;0.40;;;14.50;99.90;;;;;;10006202;29;20234;-76
2023/08/07 04:03:55;;;;;;;0.30;0.20;;;14.50;99.90;;;;;;9966771;29;20207;-76
2023/08/07 04:09:17;;;;;;;0.90;0.40;;;14.50;99.90;;;;;;9931196;30;20508;-78
2023/08/07 04:14:38;;;;;;;0.32;0.30;;;14.50;99.90;;;;;;9930791;30;20216;-76
2023/08/07 04:19:59;;;;;;;0.82;0.47;;;14.50;99.90;;;;;;9972333;29;20230;-79
2023/08/07 04:25:21;;;;;;;0.45;0.40;;;14.50;99.90;;;;;;10006253;29;20196;-76
2023/08/07 04:30:42;;;;;;;0.40;0.40;;;14.60;99.90;;;;;;10005347;29;20207;-76
2023/08/07 04:36:04;;;;;;;0.97;0.60;;;14.60;99.90;;;;;;9970311;29;20255;-77
2023/08/07 04:41:25;;;;;;;0.40;0.40;;;14.50;99.90;;;;;;9950800;29;20408;-76
2023/08/07 04:46:46;;;;;;;0.95;0.43;;;14.60;99.90;;;;;;9954009;29;20218;-78
2023/08/07 04:52:08;;;;;;;0.75;0.55;;;14.50;99.90;;;;;;9953842;29;20213;-76
2023/08/07 04:57:32;;;;;;;0.80;0.57;;;14.50;99.90;;;;;;10004576;29;20248;-76
2023/08/07 05:02:53;;;;;;;1.58;0.60;;;14.50;99.90;;;;;;10000752;29;20195;-77
2023/08/07 05:08:15;;;;;;;0.70;0.47;;;14.60;99.90;;;;;;9956428;29;20211;-77
2023/08/07 05:13:36;;;;;;;0.87;0.40;;;14.60;99.90;;;;;;9965993;29;20208;-76
2023/08/07 05:18:57;;;;;;;1.33;0.50;;;14.60;99.90;;;;;;9965615;29;20226;-79
2023/08/07 05:24:18;;;;;;;0.80;0.60;;;14.60;99.90;;;;;;9985400;29;20214;-77
2023/08/07 05:29:45;;;;;;;0.60;0.57;;;14.70;99.90;;;;;;10004514;29;20226;-76
2023/08/07 05:35:09;;;;;;;0.52;0.32;;;14.70;99.90;;;;;;9976549;29;20292;-76
2023/08/07 05:40:31;;;;;;;0.90;0.52;;;14.60;99.90;;;;;;9960159;29;20220;-75
2023/08/07 05:45:52;;;;;;;0.63;0.60;;;14.70;99.90;;;;;;9965556;29;20200;-74
2023/08/07 05:51:16;;;;;;;1.75;0.60;;;14.70;99.90;;;;;;9963545;29;20201;-72
2023/08/07 05:56:41;;;;;;;0.52;0.40;;;14.80;99.90;;;;;;9975847;29;20667;-74
2023/08/07 06:02:03;;;;;;;0.90;0.43;;;14.80;99.90;;;;;;10002556;29;20426;-74
2023/08/07 06:07:24;;;;;;;0.50;0.50;;;14.90;99.90;;;;;;9990927;29;20382;-74
2023/08/07 06:12:45;;;;;;;0.30;0.30;;;14.90;99.90;;;;;;9994588;29;20340;-74
2023/08/07 06:18:06;;;;;;;0.60;0.57;;;14.80;99.90;;;;;;9965126;29;20386;-73
2023/08/07 06:23:28;;;;;;;2.60;0.50;;;14.80;99.90;;;;;;9980937;29;20207;-75
2023/08/07 06:28:49;;;;;;;1.48;0.70;;;15.00;99.90;;;;;;10010109;29;20506;-74
2023/08/07 06:34:10;;;;;;;2.90;0.60;;;15.00;99.90;;;;;;9989448;29;20211;-75
2023/08/07 06:39:32;;;;;;;3.10;0.47;;;15.00;99.90;;;;;;9990515;29;20411;-74
2023/08/07 06:44:53;;;;;;;0.65;0.65;;;15.00;99.90;;;;;;9970949;29;20417;-73
2023/08/07 06:50:14;;;;;;;0.68;0.60;;;15.10;99.90;;;;;;9970630;29;20213;-75
2023/08/07 06:55:36;;;;;;;0.80;0.63;;;15.20;99.90;;;;;;9970295;29;20540;-73
2023/08/07 07:00:57;;;;;;;1.42;0.80;;;15.30;1.00;;;;;;9979176;29;20201;-74
2023/08/07 07:06:20;;;;;;;3.42;0.60;;;15.40;1.00;;;;;;9997150;29;20488;-76
2023/08/07 07:11:42;;;;;;;3.13;0.70;;;15.40;1.00;;;;;;9969171;29;20301;-73
2023/08/07 07:17:03;;;;;;;2.00;0.63;;;15.50;1.00;;;;;;9970982;29;20292;-73
2023/08/07 07:22:24;;;;;;;3.90;1.08;;;15.50;99.90;;;;;;9971133;29;20197;-76
2023/08/07 07:27:45;;;;;;;2.55;0.70;;;15.50;99.90;;;;;;10000234;29;20260;-78
2023/08/07 07:33:07;;;;;;;1.10;0.63;;;15.50;99.90;;;;;;9948483;29;20842;-82
2023/08/07 07:38:28;;;;;;;2.72;1.10;;;15.40;99.90;;;;;;9984215;29;20426;-81
2023/08/07 07:43:49;;;;;;;1.77;1.38;;;15.40;99.90;;;;;;9968039;29;20302;-75
2023/08/07 07:49:10;;;;;;;1.80;0.80;;;15.40;1.00;;;;;;9965339;29;20211;-75
2023/08/07 07:54:32;;;;;;;0.60;0.60;;;15.40;80.80;;;;;;9976695;29;20215;-78
2023/08/07 07:59:53;;;;;;;2.17;0.73;;;15.40;99.90;;;;;;10002494;29;20270;-78
2023/08/07 08:05:15;;;;;;;2.95;0.63;;;15.40;99.90;;;;;;9990653;29;20292;-79
2023/08/07 08:10:36;;;;;;;1.33;0.80;;;15.40;99.90;;;;;;10001765;29;20213;-77
2023/08/07 08:15:58;;;;;;;2.83;0.65;;;15.40;99.90;;;;;;9971494;29;20264;-80
2023/08/07 08:21:19;;;;;;;1.27;0.82;;;15.40;99.90;;;;;;9951020;29;20311;-78
2023/08/07 08:26:40;;;;;;;0.93;0.77;;;15.50;1.00;;;;;;9962723;29;20209;-76
2023/08/07 08:32:01;;;;;;;1.60;0.70;;;15.50;1.00;;;;;;9959754;29;20414;-85
2023/08/07 08:37:22;;;;;;;0.90;0.70;;;15.50;99.90;;;;;;9926352;29;20480;-77
2023/08/07 08:42:45;;;;;;;1.65;1.00;;;15.50;70.80;;;;;;9949392;29;20203;-86
2023/08/07 08:48:11;;;;;;;4.13;1.10;;;15.60;1.00;;;;;;9926828;29;20229;-86
2023/08/07 08:53:32;;;;;;;4.22;0.82;;;15.60;99.90;;;;;;9982633;29;20207;-81
2023/08/07 08:58:53;;;;;;;2.28;1.20;;;15.70;99.90;;;;;;9986906;29;20238;-77
2023/08/07 09:04:15;;;;;;;3.33;1.17;;;15.70;1.00;;;;;;9995617;29;20211;-77
2023/08/07 09:09:36;;;;;;;0.90;0.70;;;15.70;18.60;;;;;;9999995;29;20203;-76
2023/08/07 09:14:58;;;;;;;0.90;0.82;;;15.80;1.00;;;;;;9980645;29;20213;-78
2023/08/07 09:20:20;;;;;;;2.67;1.25;;;15.70;1.00;;;;;;9949139;29;20397;-78
2023/08/07 09:25:41;;;;;;;1.85;1.17;;;15.70;1.00;;;;;;9961341;29;20285;-80
2023/08/07 09:31:06;;;;;;;2.00;1.17;;;15.60;1.00;;;;;;9968484;29;20216;-76
2023/08/07 09:36:30;;;;;;;4.22;1.20;;;15.60;99.90;;;;;;9962200;29;20323;-84
2023/08/07 09:41:52;;;;;;;5.20;1.30;;;15.90;1.00;;;;;;9962405;29;20207;-79
2023/08/07 09:47:18;;;;;;;3.58;1.38;;;16.00;1.00;;;;;;9959138;29;20301;-75
2023/08/07 09:52:40;;;;;;;3.83;1.10;;;16.10;1.00;;;;;;9961991;29;20208;-82
2023/08/07 09:58:02;;;;;;;1.63;1.15;;;16.20;1.00;;;;;;9963932;29;20232;-84
2023/08/07 10:03:24;;;;;;;2.22;1.02;;;16.20;99.90;;;;;;9987406;29;20210;-77
2023/08/07 10:08:45;;;;;;;8.98;1.60;;;16.20;1.00;;;;;;9997928;29;20213;-76
2023/08/07 10:14:08;;;;;;;2.15;1.00;;;16.20;99.90;;;;;;9963495;29;20531;-76
2023/08/07 10:19:29;;;;;;;1.65;1.17;;;16.20;99.90;;;;;;9961492;29;20453;-77
2023/08/07 10:24:52;;;;;;;2.20;1.15;;;16.20;99.90;;;;;;9959329;29;20245;-79
2023/08/07 10:30:15;;;;;;;1.27;0.85;;;16.40;99.90;;;;;;9956357;29;20262;-76
2023/08/07 10:35:37;;;;;;;2.30;1.30;;;16.50;99.90;;;;;;9960166;29;20246;-82
2023/08/07 10:41:14;;;;;;;2.33;1.10;;;16.50;1.00;;;;;;9960728;29;20233;-76
2023/08/07 10:46:49;;;;;;;3.10;1.20;;;16.50;49.60;;;;;;9936140;29;20395;-76
2023/08/07 10:52:15;;;;;;;1.40;0.93;;;16.60;1.00;;;;;;9921078;29;20216;-76
2023/08/07 10:57:40;;;;;;;5.18;1.23;;;16.70;1.00;;;;;;9922717;29;20249;-79
2023/08/07 11:03:02;;;;;;;2.40;1.30;;;16.90;1.00;;;;;;9969329;29;20262;-77
2023/08/07 11:08:23;;;;;;;4.03;1.48;;;17.10;1.00;;;;;;9997243;29;20273;-79
2023/08/07 11:13:45;;;;;;;2.75;1.50;;;17.10;1.00;;;;;;9991167;29;20223;-79
2023/08/07 11:19:07;;;;;;;2.28;1.20;;;17.00;1.00;;;;;;9953227;29;20557;-76
2023/08/07 11:24:28;;;;;;;1.73;1.20;;;17.10;99.90;;;;;;9985199;29;20507;-76
2023/08/07 11:29:49;;;;;;;1.50;1.10;;;17.20;99.90;;;;;;9963563;29;20213;-79
2023/08/07 11:35:11;;;;;;;4.25;1.20;;;17.40;52.30;;;;;;9920882;29;20260;-87
2023/08/07 11:40:32;;;;;;;2.35;1.25;;;17.30;1.00;;;;;;9928109;29;20200;-78
2023/08/07 11:45:54;;;;;;;3.42;1.60;;;17.20;1.00;;;;;;9934553;29;20221;-76
2023/08/07 11:51:16;;;;;;;1.48;1.23;;;17.20;1.00;;;;;;9927483;29;20209;-77
2023/08/07 11:56:40;;;;;;;3.58;1.08;;;17.40;1.00;;;;;;9927088;29;20274;-77
2023/08/07 12:02:11;;;;;;;1.83;1.40;;;17.50;1.00;;;;;;9980918;29;20536;-77
2023/08/07 12:07:32;;;;;;;16.50;11.05;;;17.60;1.00;;;;;;9971096;29;20322;-78
2023/08/07 12:13:01;;;;;;;2.42;1.33;;;17.50;1.00;;;;;;9962830;29;20275;-78
2023/08/07 12:18:23;;;;;;;2.80;1.30;;;17.80;1.00;;;;;;9968172;29;20256;-78
2023/08/07 12:23:48;;;;;;;1.95;1.20;;;18.40;99.90;;;;;;9978355;29;20220;-83
2023/08/07 12:29:09;;;;;;;3.78;1.70;;;18.60;99.90;;;;;;9969616;29;20200;-80
2023/08/07 12:34:30;;;;;;;2.45;1.30;;;18.40;99.90;;;;;;9940377;29;20256;-78
2023/08/07 12:39:54;;;;;;;4.93;1.25;;;18.70;99.90;;;;;;9961267;29;20242;-78
2023/08/07 12:45:19;;;;;;;3.38;1.20;;;19.10;99.90;;;;;;9973320;29;20203;-78
2023/08/07 12:51:00;;;;;;;1.10;0.90;;;19.20;50.20;;;;;;9966129;29;20216;-78
2023/08/07 12:56:21;;;;;;;2.17;1.30;;;19.00;44.30;;;;;;9933939;29;20226;-78
2023/08/07 13:01:43;;;;;;;2.17;1.50;;;18.50;70.70;;;;;;9974103;29;20213;-77
2023/08/07 13:07:04;;;;;;;1.33;1.13;;;18.10;99.90;;;;;;9979438;29;20266;-80
2023/08/07 13:12:27;;;;;;;3.67;1.50;;;17.80;99.90;;;;;;9925206;29;20219;-83
2023/08/07 13:17:50;;;;;;;2.95;2.05;;;17.60;99.90;;;;;;9984958;29;20238;-80
2023/08/07 13:23:12;;;;;;;1.80;1.38;;;17.50;1.00;;;;;;9994215;29;20215;-80
2023/08/07 13:28:36;;;;;;;2.28;1.60;;;17.30;1.00;;;;;;9972458;29;20263;-79
2023/08/07 13:34:00;;;;;;;5.78;2.47;;;17.10;1.00;;;;;;9949878;29;20243;-75
2023/08/07 13:39:21;;;;;;;3.33;1.75;;;17.00;1.00;;;;;;9928001;29;20301;-76
2023/08/07 13:44:42;;;;;;;5.82;2.42;;;17.00;1.00;;;;;;9922223;29;20235;-76
2023/08/07 13:50:04;;;;;;;6.32;4.05;;;17.10;13.80;;;;;;9926769;29;20253;-77
2023/08/07 13:55:25;;;;;;;6.10;2.70;;;17.30;1.00;;;;;;9927137;29;20214;-79
2023/08/07 14:00:48;;;;;;;4.75;2.60;;;17.10;1.00;;;;;;9976387;29;20241;-78
2023/08/07 14:06:08;;;;;;;5.50;2.45;;;17.00;99.90;;;;;;9970653;29;20268;-75
2023/08/07 14:11:31;;;;;;;3.88;1.65;;;16.80;1.00;;;;;;9947207;29;20230;-77
2023/08/07 14:16:54;;;;;;;3.70;1.65;;;16.60;99.90;;;;;;9973487;29;20221;-78
2023/08/07 14:22:15;;;;;;;3.10;1.50;;;16.50;1.00;;;;;;9956873;29;20301;-75
2023/08/07 14:27:36;;;;;;;5.88;2.08;;;16.50;1.00;;;;;;9958714;29;20252;-75
2023/08/07 14:32:57;;;;;;;5.15;2.10;;;16.40;1.00;;;;;;9950332;29;20322;-75
2023/08/07 14:38:18;;;;;;;3.47;1.73;;;16.40;99.90;;;;;;9944765;29;20257;-76
2023/08/07 14:43:40;;;;;;;5.10;2.70;;;16.30;99.90;;;;;;9986154;29;20205;-75
2023/08/07 14:49:01;;;;;;;8.02;4.78;;;16.30;1.00;;;;;;10002338;29;20263;-85
2023/08/07 14:54:23;;;;;;;4.63;2.25;;;16.20;99.90;;;;;;9992014;29;20215;-78
2023/08/07 14:59:45;;;;;;;6.25;3.15;;;16.20;99.90;;;;;;9964953;29;20243;-75
2023/08/07 15:05:06;;;;;;;10.68;2.22;;;16.20;99.90;;;;;;9953252;29;20225;-74
2023/08/07 15:10:28;;;;;;;6.25;2.35;;;16.30;99.90;;;;;;9954282;29;20292;-75
2023/08/07 15:15:49;;;;;;;6.90;2.67;;;16.20;7.10;;;;;;9978010;29;20257;-75
2023/08/07 15:21:11;;;;;;;5.68;2.47;;;16.10;1.00;;;;;;10008765;29;20202;-77
2023/08/07 15:26:32;;;;;;;5.28;2.47;;;16.00;99.90;;;;;;9933615;29;20391;-76
2023/08/07 15:31:53;;;;;;;5.97;2.35;;;15.90;1.00;;;;;;9949983;29;20212;-76
2023/08/07 15:37:14;;;;;;;8.45;2.50;;;15.70;1.00;;;;;;9982512;29;20245;-75
2023/08/07 15:42:35;;;;;;;8.52;3.22;;;15.60;99.90;;;;;;9970240;29;20278;-75
2023/08/07 15:47:56;;;;;;;8.85;2.75;;;15.50;1.00;;;;;;9957979;29;20261;-75
2023/08/07 15:53:17;;;;;;;7.95;3.30;;;15.60;1.00;;;;;;9968741;29;20213;-77
2023/08/07 15:58:39;;;;;;;4.75;2.83;;;15.60;1.00;;;;;;9968827;29;20238;-78
2023/08/07 16:04:00;;;;;;;6.90;2.40;;;15.80;1.00;;;;;;9973001;29;20207;-75
2023/08/07 16:09:21;;;;;;;10.73;2.85;;;15.80;99.90;;;;;;9969071;29;20218;-75
2023/08/07 16:14:43;;;;;;;9.00;2.47;;;15.80;99.90;;;;;;9969457;29;20387;-75
2023/08/07 16:20:05;;;;;;;9.27;3.90;;;15.80;99.90;;;;;;9972371;29;20430;-78
2023/08/07 16:25:26;;;;;;;7.57;2.83;;;15.80;93.60;;;;;;9973419;29;20206;-76
2023/08/07 16:30:47;;;;;;;8.77;2.80;;;15.80;1.00;;;;;;9968647;29;20501;-76
2023/08/07 16:36:08;;;;;;;10.60;3.25;;;15.90;57.40;;;;;;9941042;29;20252;-76
2023/08/07 16:41:30;;;;;;;6.95;2.25;;;15.90;48.90;;;;;;9930224;30;20232;-76
2023/08/07 16:46:51;;;;;;;12.30;3.13;;;15.90;99.90;;;;;;9930954;29;20298;-75
2023/08/07 16:52:12;;;;;;;8.07;3.40;;;16.00;1.00;;;;;;9948332;29;20239;-76
2023/08/07 16:57:33;;;;;;;13.13;3.40;;;16.00;99.90;;;;;;9967395;29;20324;-75
2023/08/07 17:02:54;;;;;;;5.40;2.80;;;16.00;1.00;;;;;;9990324;29;20206;-74
2023/08/07 17:08:15;;;;;;;7.85;2.92;;;16.00;62.40;;;;;;9972343;29;20206;-75
2023/08/07 17:13:36;;;;;;;9.52;2.78;;;16.10;99.90;;;;;;9967295;29;20199;-76
2023/08/07 17:18:59;;;;;;;10.82;2.53;;;16.00;33.90;;;;;;9966657;29;20236;-74
2023/08/07 17:24:20;;;;;;;6.97;2.38;;;16.00;1.00;;;;;;9976862;29;20370;-79
2023/08/07 17:29:41;;;;;;;12.32;3.13;;;16.00;1.00;;;;;;9963785;29;20391;-75
2023/08/07 17:35:03;;;;;;;11.88;3.22;;;15.90;1.00;;;;;;9965274;29;20235;-76
2023/08/07 17:40:24;;;;;;;9.50;2.88;;;15.80;1.00;;;;;;9966186;29;20232;-75
2023/08/07 17:45:46;;;;;;;8.20;2.65;;;15.80;1.00;;;;;;9938449;29;20286;-78
2023/08/07 17:51:07;;;;;;;7.13;2.40;;;15.70;1.00;;;;;;9928570;29;20585;-79
2023/08/07 17:56:29;;;;;;;9.73;2.63;;;15.70;99.90;;;;;;9928419;29;20517;-76
2023/08/07 18:01:50;;;;;;;10.25;2.40;;;15.70;1.00;;;;;;9956134;29;20212;-76
2023/08/07 18:07:11;;;;;;;11.02;2.88;;;15.60;99.90;;;;;;9998164;29;20213;-74
2023/08/07 18:12:32;;;;;;;9.05;2.25;;;15.50;1.00;;;;;;9962688;29;20198;-75
2023/08/07 18:17:53;;;;;;;8.90;3.05;;;15.40;1.00;;;;;;9964425;29;20325;-76
2023/08/07 18:23:14;;;;;;;12.85;3.13;;;15.40;1.00;;;;;;9961866;29;20216;-76
2023/08/07 18:28:37;;;;;;;11.63;2.70;;;15.50;99.90;;;;;;9964177;29;20214;-75
2023/08/07 18:34:00;;;;;;;6.60;2.20;;;15.40;99.90;;;;;;9963582;29;20495;-74
2023/08/07 18:39:21;;;;;;;7.47;2.75;;;15.40;99.90;;;;;;9936211;29;20235;-77
2023/08/07 18:44:42;;;;;;;7.60;2.30;;;15.40;99.90;;;;;;9928861;29;20260;-76
2023/08/07 18:50:04;;;;;;;8.50;3.08;;;15.40;1.00;;;;;;9927282;29;20210;-76
2023/08/07 18:55:25;;;;;;;8.10;2.47;;;15.30;1.00;;;;;;9930465;29;20299;-76
2023/08/07 19:00:46;;;;;;;8.90;3.22;;;15.30;1.00;;;;;;9940159;29;20254;-78
2023/08/07 19:06:07;;;;;;;10.63;2.90;;;15.30;1.00;;;;;;10000953;29;20205;-75
2023/08/07 19:11:29;;;;;;;10.07;3.42;;;15.20;1.00;;;;;;9969871;29;20205;-77
2023/08/07 19:16:51;;;;;;;11.10;3.75;;;15.20;1.00;;;;;;9964211;29;20202;-74
2023/08/07 19:22:12;;;;;;;7.35;3.30;;;15.30;1.00;;;;;;9964160;29;20240;-74
2023/08/07 19:27:33;;;;;;;11.60;3.03;;;15.30;1.00;;;;;;9950175;29;20223;-74
2023/08/07 19:32:54;;;;;;;8.88;2.58;;;15.10;50.00;;;;;;9950259;29;20231;-74
2023/08/07 19:38:15;;;;;;;6.38;2.35;;;14.90;1.00;;;;;;9969148;29;20280;-73
2023/08/07 19:43:36;;;;;;;7.43;2.20;;;14.90;99.90;;;;;;9948306;29;20273;-74
2023/08/07 19:48:58;;;;;;;10.13;2.57;;;;;;;;;;9932933;29;20375;-75
2023/08/07 19:54:19;;;;;;;6.43;2.08;;;14.80;1.00;;;;;;9932795;29;20288;-78
2023/08/07 19:59:40;;;;;;;8.57;2.17;;;14.80;1.00;;;;;;9948948;29;20242;-76
2023/08/07 20:05:03;;;;;;;7.43;2.50;;;14.70;1.00;;;;;;9969579;29;20434;-76
2023/08/07 20:10:24;;;;;;;10.80;2.77;;;14.60;99.90;;;;;;9969625;29;20200;-76
2023/08/07 20:15:46;;;;;;;6.87;2.40;;;14.60;26.90;;;;;;9966990;29;20264;-73
2023/08/07 20:21:06;;;;;;;7.55;2.08;;;14.50;99.90;;;;;;9997838;29;20613;-75
2023/08/07 20:26:30;;;;;;;6.77;2.40;;;14.50;99.90;;;;;;9931631;29;20279;-75
2023/08/07 20:31:51;;;;;;;5.70;2.13;;;14.50;1.00;;;;;;9944129;29;20202;-76
2023/08/07 20:37:12;;;;;;;7.07;1.97;;;14.60;18.90;;;;;;9967029;29;20258;-76
2023/08/07 20:42:33;;;;;;;7.17;2.07;;;14.60;1.00;;;;;;9968097;29;20230;-76
2023/08/07 20:47:54;;;;;;;5.63;2.20;;;14.60;1.00;;;;;;9965570;29;20306;-76
2023/08/07 20:53:16;;;;;;;4.73;2.00;;;14.50;99.90;;;;;;9930852;29;20200;-75
2023/08/07 20:58:38;;;;;;;7.80;2.07;;;14.50;1.00;;;;;;9930240;29;20251;-76
2023/08/07 21:03:59;;;;;;;6.30;2.43;;;14.40;1.00;;;;;;9979159;29;20212;-76
2023/08/07 21:09:20;;;;;;;8.33;2.47;;;14.30;99.90;;;;;;9967564;29;20228;-76
2023/08/07 21:14:41;;;;;;;10.97;2.57;;;14.10;1.00;;;;;;9966347;29;20210;-75
2023/08/07 21:20:03;;;;;;;11.23;2.57;;;14.00;99.90;;;;;;9982573;29;20260;-76
2023/08/07 21:25:24;;;;;;;8.77;2.10;;;13.90;1.00;;;;;;9972977;29;20375;-75
2023/08/07 21:30:45;;;;;;;9.20;1.90;;;13.90;1.00;;;;;;9966473;29;20214;-73
2023/08/07 21:36:06;;;;;;;9.53;2.43;;;13.80;99.90;;;;;;9958937;29;20435;-74
2023/08/07 21:41:27;;;;;;;10.90;2.47;;;13.80;99.90;;;;;;9966335;29;20257;-73
2023/08/07 21:46:48;;;;;;;4.70;2.10;;;13.80;99.90;;;;;;9929122;29;20200;-76
2023/08/07 21:52:09;;;;;;;6.53;2.27;;;13.80;99.90;;;;;;9963707;29;20211;-75
2023/08/07 21:57:32;;;;;;;7.90;2.13;;;13.80;68.50;;;;;;9951941;29;20540;-75
2023/08/07 22:02:53;;;;;;;8.73;2.47;;;13.80;1.00;;;;;;9979484;29;20612;-76
2023/08/07 22:08:15;;;;;;;10.03;2.53;;;13.90;1.00;;;;;;9965861;29;20260;-75
2023/08/07 22:13:36;;;;;;;7.37;2.30;;;14.00;1.00;;;;;;9965507;29;20206;-76
2023/08/07 22:18:57;;;;;;;9.93;2.20;;;14.00;1.00;;;;;;9976643;29;20230;-76
2023/08/07 22:24:18;;;;;;;7.77;2.50;;;14.10;99.90;;;;;;9978649;29;20207;-76
2023/08/07 22:29:38;;;;;;;9.37;2.07;;;14.00;1.00;;;;;;9965439;29;20203;-75
2023/08/07 22:34:59;;;;;;;8.87;2.70;;;14.00;1.00;;;;;;9950950;29;20241;-75
2023/08/07 22:40:21;;;;;;;7.67;2.30;;;14.10;99.90;;;;;;9965109;29;20234;-74
2023/08/07 22:45:42;;;;;;;6.67;2.87;;;14.10;1.00;;;;;;9965313;29;20200;-76
2023/08/07 22:51:04;;;;;;;10.33;2.70;;;14.10;99.90;;;;;;9918665;29;20218;-76
2023/08/07 22:56:26;;;;;;;8.07;2.67;;;14.20;56.00;;;;;;9926620;30;20199;-76
2023/08/07 23:01:47;;;;;;;6.40;2.37;;;14.30;1.00;;;;;;9947034;29;20256;-78
2023/08/07 23:07:08;;;;;;;8.63;2.63;;;14.20;1.00;;;;;;9966708;29;20217;-77
2023/08/07 23:12:29;;;;;;;9.20;2.73;;;14.20;99.90;;;;;;9971660;29;20211;-77
2023/08/07 23:17:50;;;;;;;10.30;2.67;;;14.20;99.90;;;;;;9981974;29;20466;-76
2023/08/07 23:23:11;;;;;;;9.67;2.73;;;14.30;99.90;;;;;;9993781;29;20198;-77
2023/08/07 23:28:32;;;;;;;14.47;2.97;;;14.30;1.00;;;;;;9970412;29;20555;-77
2023/08/07 23:33:53;;;;;;;11.17;2.50;;;14.20;1.00;;;;;;9969870;29;20221;-76
2023/08/07 23:39:15;;;;;;;6.93;2.00;;;14.20;1.00;;;;;;9970612;29;20499;-76
2023/08/07 23:44:37;;;;;;;11.67;2.40;;;14.20;1.00;;;;;;9970719;29;20279;-75
2023/08/07 23:49:58;;;;;;;12.33;2.50;;;14.10;1.00;;;;;;9969218;29;20267;-75
2023/08/07 23:55:20;;;;;;;14.33;2.40;;;14.10;1.00;;;;;;9970162;29;20226;-77
